createdAt,value
2022-11-23T00:04:39.561Z,99213.94
2022-11-23T00:09:41.137Z,99211.66
2022-11-23T00:14:42.802Z,99204.06
2022-11-23T00:19:44.438Z,99218.03
2022-11-23T00:24:46.110Z,99224.84
2022-11-23T00:29:47.792Z,99216.88
2022-11-23T00:34:49.489Z,99229.75
2022-11-23T00:39:51.031Z,99223.78
2022-11-23T00:44:52.554Z,99228.38
2022-11-23T00:49:54.205Z,99237.47
2022-11-23T00:54:55.801Z,99243.56
2022-11-23T00:59:57.305Z,99239.34
2022-11-23T01:05:00.075Z,99244.19
2022-11-23T01:10:04.575Z,99249.59
2022-11-23T01:15:08.568Z,99257.22
2022-11-23T01:20:10.488Z,99245.59
2022-11-23T01:25:14.887Z,99259.31
2022-11-23T01:30:16.507Z,99263.16
2022-11-23T01:35:18.293Z,99267.31
2022-11-23T01:40:20.124Z,99266.69
2022-11-23T01:45:43.800Z,99267.69
2022-11-23T01:50:50.003Z,99268.91
2022-11-23T01:55:52.470Z,99268.31
2022-11-23T02:00:54.174Z,99271.16
2022-11-23T02:06:00.591Z,99267.53
2022-11-23T02:11:02.901Z,99264.31
2022-11-23T02:16:04.744Z,99274.41
2022-11-23T02:21:06.562Z,99274.03
2022-11-23T02:26:19.077Z,99274.88
2022-11-23T02:31:20.745Z,99274.78
2022-11-23T02:36:34.611Z,99286.66
2022-11-23T02:41:46.499Z,99280.56
2022-11-23T02:46:48.109Z,99284.41
2022-11-23T02:51:49.841Z,99284.00
2022-11-23T02:56:51.418Z,99279.88
2022-11-23T03:01:53.772Z,99280.84
2022-11-23T03:06:55.970Z,99285.47
2022-11-23T03:11:57.486Z,99283.84
2022-11-23T03:17:03.845Z,99279.88
2022-11-23T03:22:10.626Z,99284.50
2022-11-23T03:27:12.391Z,99285.94
2022-11-23T03:32:15.657Z,99277.47
2022-11-23T03:37:21.172Z,99280.13
2022-11-23T03:42:23.277Z,99288.16
2022-11-23T03:47:25.521Z,99290.41
2022-11-23T03:52:27.204Z,99285.38
2022-11-23T03:57:30.392Z,99287.59
2022-11-23T04:02:35.463Z,99287.50
2022-11-23T04:07:44.039Z,99284.06
2022-11-23T04:12:46.101Z,99294.72
2022-11-23T04:17:49.020Z,99291.72
2022-11-23T04:22:50.647Z,99289.91
2022-11-23T04:27:53.196Z,99287.28
2022-11-23T04:32:54.994Z,99290.69
2022-11-23T04:37:57.328Z,99283.44
2022-11-23T04:43:02.309Z,99283.69
2022-11-23T04:48:07.976Z,99289.97
2022-11-23T04:53:11.692Z,99296.59
2022-11-23T04:58:19.335Z,99298.00
2022-11-23T05:03:25.801Z,99308.06
2022-11-23T05:08:27.826Z,99305.38
2022-11-23T05:13:44.038Z,99309.38
2022-11-23T05:18:47.317Z,99309.75
2022-11-23T05:23:49.163Z,99311.44
2022-11-23T05:28:53.199Z,99322.75
2022-11-23T05:33:55.185Z,99320.50
2022-11-23T05:39:08.958Z,99320.91
2022-11-23T05:44:11.721Z,99329.38
2022-11-23T05:49:13.985Z,99319.91
2022-11-23T05:54:16.007Z,99329.66
2022-11-23T05:59:24.724Z,99321.22
2022-11-23T06:04:32.647Z,99324.44
2022-11-23T06:09:34.890Z,99324.78
2022-11-23T06:14:41.329Z,99323.78
2022-11-23T06:19:43.298Z,99323.84
2022-11-23T06:24:46.392Z,99320.75
2022-11-23T06:30:17.416Z,99331.38
2022-11-23T06:35:19.890Z,99336.63
2022-11-23T06:40:21.882Z,99334.75
2022-11-23T06:45:25.311Z,99343.78
2022-11-23T06:50:31.048Z,99346.75
2022-11-23T06:55:33.822Z,99344.53
2022-11-23T07:00:35.649Z,99342.16
2022-11-23T07:05:38.673Z,99357.72
2022-11-23T07:10:41.812Z,99349.84
2022-11-23T07:15:45.405Z,99352.00
2022-11-23T07:20:47.156Z,99352.59
2022-11-23T07:25:49.661Z,99363.91
2022-11-23T07:30:51.323Z,99375.97
2022-11-23T07:35:54.882Z,99370.53
2022-11-23T07:40:57.018Z,99379.78
2022-11-23T07:46:31.201Z,99383.41
2022-11-23T07:51:32.939Z,99392.66
2022-11-23T07:56:34.530Z,99403.91
2022-11-23T08:01:36.386Z,99398.69
2022-11-23T08:06:38.122Z,99402.09
2022-11-23T08:11:39.736Z,99392.28
2022-11-23T08:16:41.364Z,99400.06
2022-11-23T08:21:43.587Z,99410.47
2022-11-23T08:26:45.197Z,99397.41
2022-11-23T08:31:47.103Z,99401.75
2022-11-23T08:36:48.841Z,99409.78
2022-11-23T08:41:50.485Z,99407.31
2022-11-23T08:46:52.078Z,99407.72
2022-11-23T08:51:53.641Z,99408.34
2022-11-23T08:56:55.380Z,99409.44
2022-11-23T09:01:57.135Z,99407.66
2022-11-23T09:06:58.880Z,99416.44
2022-11-23T09:12:00.727Z,99410.88
2022-11-23T09:17:02.948Z,99425.41
2022-11-23T09:22:04.602Z,99425.09
2022-11-23T09:27:06.977Z,99445.09
2022-11-23T09:32:08.616Z,99435.69
2022-11-23T09:37:10.493Z,99431.38
2022-11-23T09:42:47.254Z,99440.84
2022-11-23T09:48:21.474Z,99437.56
2022-11-23T09:53:33.017Z,99432.94
2022-11-23T09:58:40.121Z,99435.06
2022-11-23T10:03:48.444Z,99438.50
2022-11-23T10:09:08.644Z,99437.34
2022-11-23T10:14:25.181Z,99428.91
2022-11-23T10:19:54.806Z,99428.59
2022-11-23T10:24:56.448Z,99418.59
2022-11-23T10:30:02.522Z,99418.59
2022-11-23T10:35:16.340Z,99417.44
2022-11-23T10:40:23.118Z,99402.88
2022-11-23T10:45:28.486Z,99399.75
2022-11-23T10:50:32.848Z,99379.84
2022-11-23T10:55:48.142Z,99360.13
2022-11-23T11:01:06.313Z,99360.28
2022-11-23T11:06:09.881Z,99346.91
2022-11-23T11:11:21.865Z,99341.13
2022-11-23T11:16:37.369Z,99326.97
2022-11-23T11:21:41.732Z,99337.09
2022-11-23T11:26:52.615Z,99323.38
2022-11-23T11:32:22.379Z,99315.00
2022-11-23T11:37:35.312Z,99314.72
2022-11-23T11:42:44.378Z,99308.22
2022-11-23T11:47:52.806Z,99305.34
2022-11-23T11:53:00.073Z,99309.69
2022-11-23T11:58:10.898Z,99308.94
2022-11-23T12:03:20.925Z,99303.69
2022-11-23T12:08:47.341Z,99313.22
2022-11-23T12:13:49.846Z,99321.44
2022-11-23T12:19:15.988Z,99317.34
2022-11-23T12:24:26.387Z,99307.22
2022-11-23T12:29:58.377Z,99300.75
2022-11-23T12:35:24.944Z,99309.16
2022-11-23T12:40:41.753Z,99291.63
2022-11-23T12:45:46.443Z,99302.72
2022-11-23T12:51:18.669Z,99287.91
2022-11-23T12:56:31.195Z,99264.31
2022-11-23T13:01:38.309Z,99255.47
2022-11-23T13:07:28.491Z,99242.59
2022-11-23T13:12:28.755Z,99238.13
2022-11-23T13:17:35.594Z,99223.63
2022-11-23T13:22:39.677Z,99210.72
2022-11-23T13:27:50.304Z,99227.63
2022-11-23T13:32:58.921Z,99229.69
2022-11-23T13:38:00.481Z,99210.94
2022-11-23T13:43:12.689Z,99211.63
2022-11-23T13:53:50.776Z,99205.34
2022-11-23T13:59:23.526Z,99202.00
2022-11-23T14:04:28.365Z,99204.53
2022-11-23T14:09:32.870Z,99204.97
2022-11-23T14:14:40.319Z,99202.13
2022-11-23T14:20:03.825Z,99198.47
2022-11-23T14:25:26.947Z,99192.84
2022-11-23T14:30:40.941Z,99201.41
2022-11-23T14:36:17.795Z,99196.03
2022-11-23T14:41:21.951Z,99196.03
2022-11-23T14:46:24.062Z,99195.16
2022-11-23T14:51:25.936Z,99208.91
2022-11-23T14:56:33.558Z,99218.94
2022-11-23T15:01:37.192Z,99225.56
2022-11-23T15:06:45.736Z,99232.13
2022-11-23T15:11:47.894Z,99247.53
2022-11-23T15:16:49.884Z,99251.44
2022-11-23T15:21:51.804Z,99261.41
2022-11-23T15:27:06.640Z,99262.31
2022-11-23T15:32:31.117Z,99265.72
2022-11-23T15:37:41.302Z,99273.88
2022-11-23T15:42:44.813Z,99285.06
2022-11-23T15:47:46.505Z,99310.44
2022-11-23T15:52:48.328Z,99322.56
2022-11-23T15:57:55.439Z,99333.72
2022-11-23T16:03:25.888Z,99338.97
2022-11-23T16:08:29.519Z,99354.69
2022-11-23T16:13:37.019Z,99371.16
2022-11-23T16:18:47.592Z,99368.16
2022-11-23T16:23:57.862Z,99383.81
2022-11-23T16:29:00.543Z,99392.06
2022-11-23T16:34:03.276Z,99395.66
2022-11-23T16:39:05.919Z,99411.16
2022-11-23T16:44:07.720Z,99416.78
2022-11-23T16:49:21.629Z,99426.81
2022-11-23T16:54:25.061Z,99439.69
2022-11-23T16:59:27.209Z,99447.91
2022-11-23T17:04:28.961Z,99446.91
2022-11-23T17:09:30.624Z,99435.84
2022-11-23T17:14:37.848Z,99443.50
2022-11-23T17:19:39.473Z,99440.28
2022-11-23T17:24:41.523Z,99443.88
2022-11-23T17:29:44.545Z,99456.72
2022-11-23T17:34:46.298Z,99465.53
2022-11-23T17:39:49.378Z,99473.00
2022-11-23T17:44:50.991Z,99483.03
2022-11-23T17:49:52.638Z,99497.91
2022-11-23T17:54:54.268Z,99499.72
2022-11-23T17:59:59.265Z,99496.06
2022-11-23T18:05:20.849Z,99509.97
2022-11-23T18:10:23.292Z,99507.75
2022-11-23T18:15:25.135Z,99521.00
2022-11-23T18:20:26.741Z,99524.63
2022-11-23T18:25:28.363Z,99534.66
2022-11-23T18:30:29.974Z,99548.94
2022-11-23T18:35:31.633Z,99556.94
2022-11-23T18:40:33.318Z,99556.56
2022-11-23T18:45:37.168Z,99553.97
2022-11-23T18:50:39.158Z,99566.59
2022-11-23T18:55:41.013Z,99574.69
2022-11-23T19:00:42.570Z,99592.56
2022-11-23T19:05:44.202Z,99596.09
2022-11-23T19:10:45.817Z,99594.84
2022-11-23T19:15:47.509Z,99601.28
2022-11-23T19:20:49.132Z,99620.41
2022-11-23T19:25:50.901Z,99617.81
2022-11-23T19:30:52.621Z,99619.31
2022-11-23T19:35:54.422Z,99625.50
2022-11-23T19:40:56.031Z,99633.44
2022-11-23T19:45:59.476Z,99641.09
2022-11-23T19:51:06.977Z,99641.03
2022-11-23T19:56:15.811Z,99650.16
2022-11-23T20:01:18.764Z,99660.91
2022-11-23T20:06:21.663Z,99663.59
2022-11-23T20:11:24.208Z,99672.22
2022-11-23T20:16:28.263Z,99679.63
2022-11-23T20:21:31.035Z,99685.19
2022-11-23T20:26:34.345Z,99689.81
2022-11-23T20:31:36.144Z,99699.00
2022-11-23T20:36:38.476Z,99703.16
2022-11-23T20:41:40.210Z,99700.09
2022-11-23T20:52:04.166Z,99717.66
2022-11-23T20:57:05.821Z,99716.25
2022-11-23T21:02:10.609Z,99720.91
2022-11-23T21:07:12.719Z,99721.28
2022-11-23T21:12:14.384Z,99730.09
2022-11-23T21:17:16.021Z,99739.66
2022-11-23T21:22:17.572Z,99752.84
2022-11-23T21:27:19.246Z,99760.03
2022-11-23T21:32:21.238Z,99763.00
2022-11-23T21:37:22.892Z,99778.63
2022-11-23T21:42:24.610Z,99776.28
2022-11-23T21:47:26.314Z,99768.22
2022-11-23T21:52:27.878Z,99769.31
2022-11-23T21:57:29.536Z,99785.84
2022-11-23T22:02:31.110Z,99792.28
2022-11-23T22:07:33.472Z,99808.56
2022-11-23T22:12:35.091Z,99810.06
2022-11-23T22:17:36.745Z,99821.84
2022-11-23T22:22:38.287Z,99830.56
2022-11-23T22:27:39.879Z,99837.03
2022-11-23T22:32:41.412Z,99845.66
2022-11-23T22:37:42.989Z,99842.47
2022-11-23T22:42:44.503Z,99852.41
2022-11-23T22:47:46.026Z,99857.03
2022-11-23T22:52:47.567Z,99868.31
2022-11-23T22:57:49.111Z,99867.53
2022-11-23T23:02:50.908Z,99872.59
2022-11-23T23:07:52.705Z,99888.16
2022-11-23T23:12:54.326Z,99882.03
2022-11-23T23:17:55.868Z,99897.81
2022-11-23T23:22:57.398Z,99900.88
2022-11-23T23:27:59.004Z,99898.56
2022-11-23T23:33:00.639Z,99905.72
2022-11-23T23:38:02.187Z,99909.16
2022-11-23T23:43:03.747Z,99925.09
2022-11-23T23:48:05.465Z,99928.63
2022-11-23T23:53:06.970Z,99925.78
2022-11-23T23:58:08.609Z,99929.63
